createdAt,value
2018-06-14T00:03:06.005Z,15.30
2018-06-14T00:07:56.899Z,15.20
2018-06-14T00:12:47.814Z,15.20
2018-06-14T00:17:38.737Z,15.20
2018-06-14T00:22:29.649Z,15.20
2018-06-14T00:27:20.552Z,15.20
2018-06-14T00:32:12.211Z,15.10
2018-06-14T00:37:03.134Z,15.10
2018-06-14T00:41:54.062Z,15.10
2018-06-14T00:46:44.986Z,15.10
2018-06-14T00:51:35.903Z,15.10
2018-06-14T00:56:26.808Z,15.00
2018-06-14T01:01:17.703Z,15.00
2018-06-14T01:06:09.352Z,14.90
2018-06-14T01:11:00.251Z,14.90
2018-06-14T01:15:51.901Z,14.90
2018-06-14T01:20:42.792Z,14.90
2018-06-14T01:25:33.688Z,14.90
2018-06-14T01:30:24.603Z,14.80
2018-06-14T01:35:15.488Z,14.70
2018-06-14T01:40:06.381Z,14.60
2018-06-14T01:44:58.029Z,14.40
2018-06-14T01:49:48.928Z,14.40
2018-06-14T01:54:40.580Z,14.20
2018-06-14T01:59:31.488Z,14.10
2018-06-14T02:04:23.115Z,13.90
2018-06-14T02:09:14.752Z,13.80
2018-06-14T02:14:06.422Z,13.70
2018-06-14T02:18:57.351Z,13.70
2018-06-14T02:23:48.261Z,13.60
2018-06-14T02:28:40.461Z,13.50
2018-06-14T02:33:31.371Z,13.40
2018-06-14T02:38:22.297Z,13.30
2018-06-14T02:43:13.216Z,13.30
2018-06-14T02:48:05.595Z,13.00
2018-06-14T02:52:57.253Z,12.90
2018-06-14T02:57:48.163Z,12.90
2018-06-14T03:02:39.091Z,12.90
2018-06-14T03:07:30.005Z,12.80
2018-06-14T03:12:20.921Z,12.70
2018-06-14T03:17:11.817Z,12.70
2018-06-14T03:22:03.445Z,12.60
2018-06-14T03:26:55.067Z,12.60
2018-06-14T03:31:45.960Z,12.50
2018-06-14T03:36:36.939Z,12.50
2018-06-14T03:41:27.830Z,12.50
2018-06-14T03:46:19.494Z,12.60
2018-06-14T03:51:10.379Z,12.50
2018-06-14T03:56:01.276Z,12.60
2018-06-14T04:00:52.165Z,12.60
2018-06-14T04:05:43.082Z,12.60
2018-06-14T04:10:33.999Z,12.60
2018-06-14T04:15:24.901Z,12.70
2018-06-14T04:20:15.847Z,12.80
2018-06-14T04:25:06.747Z,12.80
2018-06-14T04:29:57.674Z,12.90
2018-06-14T04:34:48.627Z,12.90
2018-06-14T04:39:39.528Z,13.00
2018-06-14T04:44:30.431Z,13.10
2018-06-14T04:49:21.355Z,13.10
2018-06-14T04:54:12.248Z,13.20
2018-06-14T04:59:03.139Z,13.30
2018-06-14T05:03:54.792Z,13.40
2018-06-14T05:08:46.449Z,13.50
2018-06-14T05:13:37.409Z,13.50
2018-06-14T05:18:28.288Z,13.60
2018-06-14T05:23:19.190Z,13.70
2018-06-14T05:28:10.097Z,13.70
2018-06-14T05:33:00.979Z,13.80
2018-06-14T05:37:51.902Z,13.90
2018-06-14T05:42:42.781Z,13.90
2018-06-14T05:47:33.659Z,14.00
2018-06-14T05:52:24.535Z,14.00
2018-06-14T05:57:15.441Z,14.10
2018-06-14T06:02:06.332Z,14.20
2018-06-14T06:06:57.991Z,14.20
2018-06-14T06:11:48.935Z,14.20
2018-06-14T06:16:39.877Z,14.30
2018-06-14T06:21:30.813Z,14.30
2018-06-14T06:26:22.503Z,14.40
2018-06-14T06:31:13.395Z,14.40
2018-06-14T06:36:04.300Z,14.50
2018-06-14T06:40:55.944Z,14.60
2018-06-14T06:45:46.869Z,14.60
2018-06-14T06:50:37.780Z,14.70
2018-06-14T06:55:28.685Z,14.90
2018-06-14T07:00:19.595Z,15.00
2018-06-14T07:05:11.279Z,15.30
2018-06-14T07:10:02.192Z,15.30
2018-06-14T07:14:53.096Z,15.50
2018-06-14T07:19:43.990Z,15.60
2018-06-14T07:24:35.650Z,15.90
2018-06-14T07:29:26.580Z,15.90
2018-06-14T07:34:17.493Z,16.10
2018-06-14T07:39:08.416Z,16.30
2018-06-14T07:43:59.316Z,16.60
2018-06-14T07:48:50.282Z,16.80
2018-06-14T07:53:41.248Z,17.10
2018-06-14T07:58:32.901Z,17.60
2018-06-14T08:03:23.872Z,17.60
2018-06-14T08:08:14.808Z,17.80
2018-06-14T08:13:06.435Z,18.00
2018-06-14T08:17:58.105Z,18.10
2018-06-14T08:22:49.003Z,18.10
2018-06-14T08:27:40.682Z,18.20
2018-06-14T08:32:31.637Z,18.20
2018-06-14T08:37:22.543Z,18.30
2018-06-14T08:42:13.470Z,18.30
2018-06-14T08:47:05.120Z,18.40
2018-06-14T08:51:56.767Z,18.50
2018-06-14T08:56:48.437Z,18.60
2018-06-14T09:01:39.349Z,18.60
2018-06-14T09:06:30.269Z,18.70
2018-06-14T09:11:21.155Z,18.70
2018-06-14T09:16:12.811Z,18.80
2018-06-14T09:21:03.713Z,18.80
2018-06-14T09:25:55.351Z,18.90
2018-06-14T09:30:47.004Z,18.90
2018-06-14T09:35:37.905Z,18.90
2018-06-14T09:40:29.536Z,18.90
2018-06-14T09:45:21.192Z,18.90
2018-06-14T09:50:12.076Z,18.90
2018-06-14T09:55:02.998Z,19.00
2018-06-14T09:59:54.618Z,19.10
2018-06-14T10:04:45.508Z,19.00
2018-06-14T10:09:36.397Z,19.10
2018-06-14T10:14:27.296Z,19.10
2018-06-14T10:19:18.969Z,19.20
2018-06-14T10:24:09.851Z,19.20
2018-06-14T10:29:01.486Z,19.30
2018-06-14T10:33:53.128Z,19.40
2018-06-14T10:38:44.012Z,19.40
2018-06-14T10:43:34.984Z,19.50
2018-06-14T10:48:25.812Z,19.50
2018-06-14T10:53:16.695Z,19.70
2018-06-14T10:58:08.319Z,20.00
2018-06-14T11:02:59.999Z,20.20
2018-06-14T11:07:50.933Z,20.20
2018-06-14T11:12:41.832Z,20.50
2018-06-14T11:17:32.732Z,20.80
2018-06-14T11:22:23.631Z,21.20
2018-06-14T11:27:15.271Z,22.00
2018-06-14T11:32:06.918Z,22.50
2018-06-14T11:36:57.829Z,22.50
2018-06-14T11:41:49.471Z,23.50
2018-06-14T11:46:40.381Z,23.50
2018-06-14T11:51:32.039Z,24.60
2018-06-14T11:56:22.965Z,24.50
2018-06-14T12:01:13.933Z,25.10
2018-06-14T12:06:04.795Z,25.50
2018-06-14T12:10:55.695Z,25.90
2018-06-14T12:15:46.596Z,26.40
2018-06-14T12:20:38.248Z,27.10
2018-06-14T12:25:29.144Z,27.10
2018-06-14T12:30:20.773Z,28.10
2018-06-14T12:35:11.687Z,28.00
2018-06-14T12:40:02.577Z,28.50
2018-06-14T12:44:53.484Z,28.90
2018-06-14T12:49:44.384Z,29.30
2018-06-14T12:54:35.272Z,29.70
2018-06-14T12:59:26.914Z,30.20
2018-06-14T13:04:18.593Z,30.40
2018-06-14T13:09:09.513Z,30.40
2018-06-14T13:14:00.433Z,30.50
2018-06-14T13:18:51.343Z,30.70
2018-06-14T13:23:42.301Z,30.80
2018-06-14T13:28:33.217Z,30.90
2018-06-14T13:33:24.155Z,31.00
2018-06-14T13:38:15.813Z,31.20
2018-06-14T13:43:06.711Z,31.10
2018-06-14T13:47:58.487Z,31.20
2018-06-14T13:52:49.402Z,31.20
2018-06-14T13:57:40.325Z,31.20
2018-06-14T14:02:31.276Z,31.20
2018-06-14T14:07:22.321Z,31.20
2018-06-14T14:12:13.973Z,31.40
2018-06-14T14:17:05.617Z,31.50
2018-06-14T14:21:56.526Z,31.50
2018-06-14T14:26:48.249Z,31.70
2018-06-14T14:31:39.935Z,31.40
2018-06-14T14:36:30.821Z,31.40
2018-06-14T14:41:22.449Z,31.30
2018-06-14T14:46:14.107Z,31.40
2018-06-14T14:51:04.996Z,31.30
2018-06-14T14:55:56.628Z,31.40
2018-06-14T15:00:48.280Z,31.30
2018-06-14T15:05:39.945Z,31.30
2018-06-14T15:10:30.839Z,31.20
2018-06-14T15:15:22.463Z,31.10
2018-06-14T15:20:14.164Z,30.90
2018-06-14T15:25:05.078Z,30.90
2018-06-14T15:29:55.978Z,30.80
2018-06-14T15:34:46.874Z,30.70
2018-06-14T15:39:37.771Z,30.50
2018-06-14T15:44:29.413Z,30.00
2018-06-14T15:49:21.057Z,29.70
2018-06-14T15:54:11.966Z,29.70
2018-06-14T15:59:03.581Z,29.10
2018-06-14T16:03:54.470Z,29.10
2018-06-14T16:08:45.359Z,28.80
2018-06-14T16:13:36.258Z,28.60
2018-06-14T16:18:27.179Z,28.30
2018-06-14T16:23:18.098Z,28.10
2018-06-14T16:28:08.989Z,27.80
2018-06-14T16:32:59.874Z,27.50
2018-06-14T16:37:50.773Z,27.20
2018-06-14T16:42:41.692Z,26.80
2018-06-14T16:47:32.591Z,26.60
2018-06-14T16:52:23.477Z,26.30
2018-06-14T16:57:15.117Z,25.80
2018-06-14T17:02:06.833Z,25.60
2018-06-14T17:06:57.780Z,25.60
2018-06-14T17:11:49.429Z,25.20
2018-06-14T17:16:41.069Z,25.00
2018-06-14T17:21:31.966Z,24.90
2018-06-14T17:26:23.596Z,24.60
2018-06-14T17:31:15.239Z,24.40
2018-06-14T17:36:06.897Z,24.20
2018-06-14T17:40:58.582Z,24.00
2018-06-14T17:45:49.504Z,24.00
2018-06-14T17:55:38.171Z,23.60
2018-06-14T18:00:29.264Z,23.40
2018-06-14T18:05:20.151Z,23.30
2018-06-14T18:10:11.785Z,22.90
2018-06-14T18:15:02.688Z,22.90
2018-06-14T18:19:53.566Z,22.70
2018-06-14T18:24:44.471Z,22.60
2018-06-14T18:29:35.416Z,22.40
2018-06-14T18:34:26.276Z,22.30
2018-06-14T18:39:17.182Z,22.10
2018-06-14T18:44:08.059Z,21.90
2018-06-14T18:48:58.942Z,21.80
2018-06-14T18:53:50.575Z,21.40
2018-06-14T18:58:41.513Z,21.40
2018-06-14T19:03:33.153Z,21.10
2018-06-14T19:08:24.808Z,20.90
2018-06-14T19:13:15.723Z,20.90
2018-06-14T19:18:06.633Z,20.70
2018-06-14T19:22:57.536Z,20.50
2018-06-14T19:27:49.192Z,20.20
2018-06-14T19:32:40.104Z,20.10
2018-06-14T19:37:31.035Z,20.00
2018-06-14T19:42:21.965Z,19.80
2018-06-14T19:47:12.868Z,19.60
2018-06-14T19:52:03.788Z,19.40
2018-06-14T19:56:54.691Z,19.30
2018-06-14T20:01:46.427Z,18.90
2018-06-14T20:06:38.132Z,18.70
2018-06-14T20:11:29.053Z,18.70
2018-06-14T20:16:21.483Z,18.30
2018-06-14T20:21:12.418Z,18.30
2018-06-14T20:26:03.467Z,18.20
2018-06-14T20:30:55.120Z,17.90
2018-06-14T20:35:46.017Z,17.90
2018-06-14T20:40:37.733Z,17.60
2018-06-14T20:45:28.654Z,17.50
2018-06-14T20:50:21.067Z,17.30
2018-06-14T20:55:11.951Z,17.30
2018-06-14T21:00:03.592Z,17.00
2018-06-14T21:04:55.250Z,16.90
2018-06-14T21:09:46.221Z,16.90
2018-06-14T21:14:37.326Z,16.80
2018-06-14T21:19:28.241Z,16.60
2018-06-14T21:24:19.262Z,16.50
2018-06-14T21:29:10.186Z,16.40
2018-06-14T21:34:01.090Z,16.30
2018-06-14T21:38:51.983Z,16.20
2018-06-14T21:43:42.880Z,16.10
2018-06-14T21:48:33.798Z,16.00
2018-06-14T21:53:25.445Z,15.90
2018-06-14T21:58:16.347Z,15.90
2018-06-14T22:03:07.989Z,15.80
2018-06-14T22:07:59.658Z,15.70
2018-06-14T22:12:50.609Z,15.70
2018-06-14T22:17:41.533Z,15.70
2018-06-14T22:22:32.424Z,15.60
2018-06-14T22:27:23.347Z,15.60
2018-06-14T22:32:14.219Z,15.50
2018-06-14T22:37:05.870Z,15.50
2018-06-14T22:41:56.755Z,15.40
2018-06-14T22:46:47.635Z,15.40
2018-06-14T22:51:38.524Z,15.40
2018-06-14T22:56:29.686Z,15.30
2018-06-14T23:01:21.320Z,15.30
2018-06-14T23:06:12.237Z,15.30
2018-06-14T23:11:15.552Z,15.20
2018-06-14T23:16:06.461Z,15.20
2018-06-14T23:20:57.351Z,15.20
2018-06-14T23:25:48.253Z,15.20
2018-06-14T23:30:39.898Z,15.10
2018-06-14T23:35:30.778Z,15.10
2018-06-14T23:40:21.680Z,15.10
2018-06-14T23:45:12.572Z,15.10
2018-06-14T23:50:03.516Z,15.10
2018-06-14T23:54:54.399Z,15.00
2018-06-14T23:59:45.299Z,15.00
